createdAt,value
2019-02-11T00:01:50.236Z,99.90
2019-02-11T00:04:20.531Z,99.90
2019-02-11T00:06:50.840Z,99.90
2019-02-11T00:09:21.161Z,99.90
2019-02-11T00:11:51.517Z,99.90
2019-02-11T00:14:21.820Z,99.90
2019-02-11T00:16:52.122Z,99.90
2019-02-11T00:19:22.475Z,99.90
2019-02-11T00:21:52.780Z,99.90
2019-02-11T00:24:23.149Z,99.90
2019-02-11T00:26:53.460Z,99.90
2019-02-11T00:29:23.847Z,99.90
2019-02-11T00:31:54.367Z,99.90
2019-02-11T00:34:24.656Z,99.90
2019-02-11T00:36:54.940Z,99.90
2019-02-11T00:39:25.313Z,99.90
2019-02-11T00:41:55.568Z,99.90
2019-02-11T00:44:25.982Z,99.90
2019-02-11T00:46:56.319Z,99.90
2019-02-11T00:49:26.631Z,99.90
2019-02-11T00:51:56.919Z,99.90
2019-02-11T00:54:27.189Z,99.90
2019-02-11T00:56:57.467Z,99.90
2019-02-11T00:59:27.731Z,99.90
2019-02-11T01:01:58.024Z,99.90
2019-02-11T01:04:28.295Z,99.90
2019-02-11T01:06:58.601Z,99.90
2019-02-11T01:09:28.871Z,99.90
2019-02-11T01:11:59.147Z,99.90
2019-02-11T01:14:29.514Z,99.90
2019-02-11T01:16:59.791Z,99.90
2019-02-11T01:19:30.069Z,99.90
2019-02-11T01:22:00.371Z,99.90
2019-02-11T01:24:30.642Z,99.90
2019-02-11T01:27:01.056Z,99.90
2019-02-11T01:29:31.327Z,99.90
2019-02-11T01:32:01.633Z,99.90
2019-02-11T01:34:31.971Z,99.90
2019-02-11T01:37:05.540Z,99.90
2019-02-11T01:39:35.945Z,99.90
2019-02-11T01:42:06.239Z,99.90
2019-02-11T01:44:36.509Z,99.90
2019-02-11T01:47:06.417Z,99.90
2019-02-11T01:49:36.700Z,99.90
2019-02-11T01:52:06.580Z,99.90
2019-02-11T01:54:38.115Z,99.90
2019-02-11T01:57:08.346Z,99.90
2019-02-11T01:59:38.714Z,99.90
2019-02-11T02:02:09.287Z,99.90
2019-02-11T02:04:39.712Z,99.90
2019-02-11T02:07:09.996Z,99.90
2019-02-11T02:09:40.574Z,99.90
2019-02-11T02:12:10.837Z,99.90
2019-02-11T02:14:41.316Z,99.90
2019-02-11T02:17:11.612Z,99.90
2019-02-11T02:19:42.328Z,99.90
2019-02-11T02:22:12.627Z,99.90
2019-02-11T02:24:42.905Z,99.90
2019-02-11T02:27:13.215Z,99.90
2019-02-11T02:29:43.520Z,99.90
2019-02-11T02:32:13.864Z,99.90
2019-02-11T02:34:44.135Z,99.90
2019-02-11T02:37:14.536Z,99.90
2019-02-11T02:39:44.810Z,99.90
2019-02-11T02:42:15.202Z,99.90
2019-02-11T02:44:45.483Z,99.90
2019-02-11T02:47:15.784Z,99.90
2019-02-11T02:49:46.072Z,99.90
2019-02-11T02:52:16.456Z,99.90
2019-02-11T02:54:46.928Z,99.90
2019-02-11T02:57:17.234Z,99.90
2019-02-11T02:59:47.544Z,99.90
2019-02-11T03:02:17.859Z,99.90
2019-02-11T03:04:48.141Z,99.90
2019-02-11T03:07:18.523Z,99.90
2019-02-11T03:09:48.848Z,99.90
2019-02-11T03:12:19.111Z,99.90
2019-02-11T03:14:49.460Z,99.90
2019-02-11T03:17:19.851Z,99.90
2019-02-11T03:19:50.117Z,99.90
2019-02-11T03:22:20.479Z,99.90
2019-02-11T03:24:50.743Z,99.90
2019-02-11T03:27:21.080Z,99.90
2019-02-11T03:29:51.452Z,99.90
2019-02-11T03:32:22.216Z,99.90
2019-02-11T03:34:52.588Z,99.90
2019-02-11T03:37:22.931Z,99.90
2019-02-11T03:39:53.248Z,99.90
2019-02-11T03:42:23.615Z,99.90
2019-02-11T03:44:53.984Z,99.90
2019-02-11T03:47:24.296Z,99.90
2019-02-11T03:49:54.670Z,99.90
2019-02-11T03:52:25.049Z,99.90
2019-02-11T03:54:55.337Z,99.90
2019-02-11T03:57:25.645Z,99.90
2019-02-11T03:59:55.917Z,99.90
2019-02-11T04:02:26.260Z,99.90
2019-02-11T04:04:56.542Z,99.90
2019-02-11T04:07:26.825Z,99.90
2019-02-11T04:09:57.106Z,99.90
2019-02-11T04:12:27.390Z,99.90
2019-02-11T04:14:57.755Z,99.90
2019-02-11T04:17:28.044Z,99.90
2019-02-11T04:19:58.341Z,99.90
2019-02-11T04:22:28.668Z,99.90
2019-02-11T04:24:58.967Z,99.90
2019-02-11T04:27:29.249Z,99.90
2019-02-11T04:29:59.520Z,99.90
2019-02-11T04:32:29.800Z,99.90
2019-02-11T04:35:00.345Z,99.90
2019-02-11T04:37:30.641Z,99.90
2019-02-11T04:40:01.000Z,99.90
2019-02-11T04:42:31.284Z,99.90
2019-02-11T04:45:01.584Z,99.90
2019-02-11T04:47:31.868Z,99.90
2019-02-11T04:50:02.164Z,99.90
2019-02-11T04:52:32.444Z,99.90
2019-02-11T04:55:02.735Z,99.90
2019-02-11T04:57:33.026Z,99.90
2019-02-11T05:00:03.346Z,99.90
2019-02-11T05:02:33.641Z,99.90
2019-02-11T05:05:04.301Z,99.90
2019-02-11T05:07:34.604Z,99.90
2019-02-11T05:10:06.171Z,99.90
2019-02-11T05:12:36.449Z,99.90
2019-02-11T05:15:07.339Z,99.90
2019-02-11T05:17:37.622Z,99.90
2019-02-11T05:20:08.075Z,99.90
2019-02-11T05:22:38.449Z,99.90
2019-02-11T05:25:08.841Z,99.90
2019-02-11T05:27:39.472Z,99.90
2019-02-11T05:30:10.349Z,99.90
2019-02-11T05:32:40.949Z,99.90
2019-02-11T05:35:11.331Z,99.90
2019-02-11T05:37:41.604Z,99.90
2019-02-11T05:40:12.078Z,99.90
2019-02-11T05:42:42.607Z,99.90
2019-02-11T05:45:13.008Z,99.90
2019-02-11T05:47:43.487Z,99.90
2019-02-11T05:50:13.800Z,99.90
2019-02-11T05:52:44.183Z,99.90
2019-02-11T05:55:14.485Z,99.90
2019-02-11T05:57:44.848Z,99.90
2019-02-11T06:00:16.846Z,99.90
2019-02-11T06:02:47.131Z,99.90
2019-02-11T06:05:17.488Z,99.90
2019-02-11T06:07:47.843Z,99.90
2019-02-11T06:10:18.140Z,99.90
2019-02-11T06:12:48.412Z,99.90
2019-02-11T06:15:18.717Z,99.90
2019-02-11T06:17:48.988Z,99.90
2019-02-11T06:20:19.288Z,99.90
2019-02-11T06:22:49.563Z,99.90
2019-02-11T06:25:19.972Z,99.90
2019-02-11T06:27:50.249Z,99.90
2019-02-11T06:30:20.550Z,99.90
2019-02-11T06:32:50.851Z,99.60
2019-02-11T06:35:21.136Z,99.50
2019-02-11T06:37:51.421Z,99.20
2019-02-11T06:40:21.694Z,99.30
2019-02-11T06:42:52.092Z,99.10
2019-02-11T06:45:22.364Z,99.10
2019-02-11T06:47:52.696Z,98.90
2019-02-11T06:50:22.968Z,98.80
2019-02-11T06:52:53.248Z,98.40
2019-02-11T06:55:23.534Z,98.30
2019-02-11T06:57:53.829Z,98.10
2019-02-11T07:00:24.201Z,97.60
2019-02-11T07:02:54.487Z,97.80
2019-02-11T07:05:24.765Z,97.50
2019-02-11T07:07:55.051Z,97.80
2019-02-11T07:10:25.382Z,97.90
2019-02-11T07:12:55.669Z,97.70
2019-02-11T07:15:26.038Z,97.40
2019-02-11T07:17:56.388Z,97.20
2019-02-11T07:20:26.768Z,97.10
2019-02-11T07:22:57.057Z,97.10
2019-02-11T07:25:27.416Z,97.20
2019-02-11T07:27:57.704Z,97.00
2019-02-11T07:30:28.067Z,97.00
2019-02-11T07:32:58.456Z,97.00
2019-02-11T07:35:28.757Z,96.60
2019-02-11T07:37:59.089Z,96.90
2019-02-11T07:40:29.463Z,97.00
2019-02-11T07:43:07.993Z,97.00
2019-02-11T07:45:43.417Z,96.80
2019-02-11T07:48:13.768Z,97.10
2019-02-11T07:50:44.060Z,97.40
2019-02-11T07:53:14.384Z,97.70
2019-02-11T07:55:44.669Z,97.90
2019-02-11T07:58:14.980Z,98.10
2019-02-11T08:00:45.265Z,98.60
2019-02-11T08:03:15.656Z,99.20
2019-02-11T08:05:45.928Z,99.50
2019-02-11T08:08:16.261Z,99.90
2019-02-11T08:10:46.640Z,99.90
2019-02-11T08:13:16.944Z,99.90
2019-02-11T08:15:47.264Z,99.90
2019-02-11T08:18:17.576Z,99.90
2019-02-11T08:20:47.925Z,99.90
2019-02-11T08:23:19.510Z,99.90
2019-02-11T08:25:49.703Z,99.90
2019-02-11T08:28:19.996Z,99.90
2019-02-11T08:30:50.272Z,99.90
2019-02-11T08:33:20.691Z,99.90
2019-02-11T08:35:50.988Z,99.90
2019-02-11T08:38:21.272Z,99.90
2019-02-11T08:40:51.629Z,99.90
2019-02-11T08:43:21.908Z,99.90
2019-02-11T08:45:52.259Z,99.90
2019-02-11T08:48:22.551Z,99.90
2019-02-11T08:50:52.836Z,99.90
2019-02-11T08:53:23.117Z,99.90
2019-02-11T08:55:53.480Z,99.90
2019-02-11T08:58:23.769Z,99.90
2019-02-11T09:00:54.205Z,99.90
2019-02-11T09:03:24.586Z,99.90
2019-02-11T09:05:54.977Z,99.90
2019-02-11T09:08:25.280Z,99.90
2019-02-11T09:10:55.611Z,99.90
2019-02-11T09:13:25.918Z,99.90
2019-02-11T09:15:56.202Z,99.90
2019-02-11T09:18:26.618Z,99.90
2019-02-11T09:20:56.904Z,99.90
2019-02-11T09:23:27.281Z,99.90
2019-02-11T09:25:57.561Z,99.90
2019-02-11T09:28:27.892Z,99.90
2019-02-11T09:30:58.190Z,99.70
2019-02-11T09:33:28.498Z,99.30
2019-02-11T09:35:58.791Z,99.50
2019-02-11T09:38:29.112Z,98.90
2019-02-11T09:40:59.511Z,98.90
2019-02-11T09:43:29.824Z,98.60
2019-02-11T09:46:03.876Z,98.90
2019-02-11T09:48:32.109Z,99.20
2019-02-11T09:51:03.429Z,99.50
2019-02-11T09:53:33.783Z,99.70
2019-02-11T09:56:05.078Z,99.80
2019-02-11T09:58:35.451Z,99.80
2019-02-11T10:01:05.820Z,99.60
2019-02-11T10:03:36.175Z,99.80
2019-02-11T10:06:06.558Z,99.90
2019-02-11T10:08:36.852Z,99.90
2019-02-11T10:11:06.770Z,99.90
2019-02-11T10:13:37.132Z,99.90
2019-02-11T10:16:12.631Z,99.90
2019-02-11T10:18:39.433Z,99.90
2019-02-11T10:21:09.824Z,99.90
2019-02-11T10:23:40.173Z,99.90
2019-02-11T10:26:10.492Z,99.90
2019-02-11T10:28:41.087Z,99.90
2019-02-11T10:31:11.697Z,99.90
2019-02-11T10:33:42.032Z,99.90
2019-02-11T10:36:12.826Z,99.90
2019-02-11T10:38:43.121Z,99.90
2019-02-11T10:41:13.444Z,99.90
2019-02-11T10:43:43.740Z,99.90
2019-02-11T10:46:20.805Z,99.90
2019-02-11T10:48:45.957Z,99.90
2019-02-11T10:51:16.317Z,99.90
2019-02-11T10:53:46.584Z,99.90
2019-02-11T10:56:16.878Z,99.90
2019-02-11T10:58:47.221Z,99.90
2019-02-11T11:01:17.604Z,99.90
2019-02-11T11:03:47.951Z,99.90
2019-02-11T11:06:18.241Z,99.90
2019-02-11T11:08:48.548Z,99.90
2019-02-11T11:11:18.861Z,99.90
2019-02-11T11:13:49.222Z,99.90
2019-02-11T11:16:19.632Z,99.90
2019-02-11T11:18:49.996Z,99.90
2019-02-11T11:21:20.689Z,99.90
2019-02-11T11:23:51.040Z,99.90
2019-02-11T11:26:21.562Z,99.90
2019-02-11T11:28:51.907Z,99.90
2019-02-11T11:31:22.228Z,99.90
2019-02-11T11:33:52.521Z,99.90
2019-02-11T11:36:22.929Z,99.90
2019-02-11T11:38:53.216Z,99.90
2019-02-11T11:41:24.226Z,99.90
2019-02-11T11:43:54.501Z,99.90
2019-02-11T11:46:24.829Z,99.90
2019-02-11T11:48:55.117Z,99.90
2019-02-11T11:51:25.792Z,99.90
2019-02-11T11:53:56.072Z,99.90
2019-02-11T11:56:26.565Z,99.90
2019-02-11T11:58:56.870Z,99.90
2019-02-11T12:01:27.762Z,99.90
2019-02-11T12:03:58.055Z,99.90
2019-02-11T12:06:28.368Z,99.90
2019-02-11T12:08:59.375Z,99.90
2019-02-11T12:11:29.993Z,99.90
2019-02-11T12:14:00.274Z,99.90
2019-02-11T12:16:30.648Z,99.90
2019-02-11T12:19:00.969Z,99.90
2019-02-11T12:21:33.152Z,99.90
2019-02-11T12:24:03.444Z,99.90
2019-02-11T12:26:33.797Z,99.90
2019-02-11T12:29:04.109Z,99.90
2019-02-11T12:31:34.424Z,99.90
2019-02-11T12:34:04.832Z,99.90
2019-02-11T12:36:35.193Z,99.90
2019-02-11T12:39:06.282Z,99.90
2019-02-11T12:41:36.636Z,99.90
2019-02-11T12:44:06.529Z,99.90
2019-02-11T12:46:36.828Z,99.90
2019-02-11T12:49:06.721Z,99.90
2019-02-11T12:51:37.065Z,99.90
2019-02-11T12:54:07.757Z,99.90
2019-02-11T12:56:40.660Z,99.90
2019-02-11T12:59:10.950Z,99.90
2019-02-11T13:01:41.422Z,99.90
2019-02-11T13:04:11.740Z,99.90
2019-02-11T13:06:42.004Z,99.90
2019-02-11T13:09:12.363Z,99.90
2019-02-11T13:11:42.661Z,98.90
2019-02-11T13:14:13.024Z,98.80
2019-02-11T13:16:43.316Z,99.50
2019-02-11T13:19:13.599Z,99.30
2019-02-11T13:21:43.960Z,99.50
2019-02-11T13:24:14.863Z,99.50
2019-02-11T13:26:45.283Z,98.80
2019-02-11T13:29:15.541Z,98.80
2019-02-11T13:31:46.003Z,98.60
2019-02-11T13:34:16.361Z,98.70
2019-02-11T13:36:46.726Z,99.10
2019-02-11T13:39:17.299Z,99.30
2019-02-11T13:41:47.605Z,99.00
2019-02-11T13:44:17.891Z,99.50
2019-02-11T13:46:48.215Z,99.90
2019-02-11T13:49:18.910Z,99.90
2019-02-11T13:51:49.402Z,99.90
2019-02-11T13:54:19.704Z,99.90
2019-02-11T13:56:50.273Z,99.90
2019-02-11T13:59:21.104Z,99.90
2019-02-11T14:01:50.955Z,99.90
2019-02-11T14:04:21.443Z,99.90
2019-02-11T14:06:51.997Z,99.90
2019-02-11T14:09:22.243Z,99.90
2019-02-11T14:11:52.531Z,99.90
2019-02-11T14:14:28.898Z,99.80
2019-02-11T14:16:59.173Z,99.80
2019-02-11T14:19:29.497Z,99.30
2019-02-11T14:21:59.770Z,99.60
2019-02-11T14:24:30.151Z,98.80
2019-02-11T14:27:00.489Z,98.70
2019-02-11T14:29:30.879Z,98.10
2019-02-11T14:32:01.162Z,98.00
2019-02-11T14:34:31.513Z,97.70
2019-02-11T14:37:02.471Z,97.60
2019-02-11T14:39:32.868Z,97.40
2019-02-11T14:42:03.221Z,97.60
2019-02-11T14:44:34.779Z,97.00
2019-02-11T14:47:09.444Z,96.80
2019-02-11T14:49:39.872Z,97.20
2019-02-11T14:52:11.443Z,97.00
2019-02-11T14:54:42.515Z,97.20
2019-02-11T14:57:14.546Z,96.80
2019-02-11T14:59:45.729Z,96.30
2019-02-11T15:02:15.950Z,96.20
2019-02-11T15:04:48.230Z,96.50
2019-02-11T15:07:18.505Z,96.10
2019-02-11T15:09:48.813Z,95.90
2019-02-11T15:12:19.115Z,95.70
2019-02-11T15:14:49.406Z,96.20
2019-02-11T15:17:19.776Z,95.80
2019-02-11T15:19:50.055Z,95.40
2019-02-11T15:22:20.321Z,94.70
2019-02-11T15:24:50.691Z,94.30
2019-02-11T15:27:20.976Z,94.20
2019-02-11T15:29:51.576Z,94.50
2019-02-11T15:32:21.936Z,93.80
2019-02-11T15:34:52.316Z,93.70
2019-02-11T15:37:22.652Z,93.40
2019-02-11T15:39:53.071Z,93.40
2019-02-11T15:42:36.092Z,93.40
2019-02-11T15:45:09.522Z,93.60
2019-02-11T15:47:40.664Z,93.60
2019-02-11T15:50:12.303Z,93.90
2019-02-11T15:52:42.875Z,94.00
2019-02-11T15:55:15.171Z,93.90
2019-02-11T15:57:45.467Z,93.60
2019-02-11T16:00:20.492Z,93.80
2019-02-11T16:02:51.675Z,93.70
2019-02-11T16:05:22.233Z,93.50
2019-02-11T16:07:52.500Z,93.40
2019-02-11T16:10:24.625Z,93.20
2019-02-11T16:12:54.919Z,92.90
2019-02-11T16:15:25.167Z,93.20
2019-02-11T16:17:55.465Z,93.20
2019-02-11T16:20:25.729Z,93.50
2019-02-11T16:22:56.007Z,93.40
2019-02-11T16:25:26.316Z,93.30
2019-02-11T16:27:57.919Z,93.40
2019-02-11T16:30:28.371Z,93.50
2019-02-11T16:32:58.662Z,93.60
2019-02-11T16:35:28.927Z,93.40
2019-02-11T16:37:59.301Z,93.50
2019-02-11T16:40:29.581Z,93.50
2019-02-11T16:42:59.863Z,93.70
2019-02-11T16:45:30.129Z,93.40
2019-02-11T16:48:00.414Z,93.50
2019-02-11T16:50:30.689Z,93.70
2019-02-11T16:53:00.953Z,93.70
2019-02-11T16:55:31.297Z,93.40
2019-02-11T16:58:01.604Z,93.60
2019-02-11T17:00:31.952Z,93.80
2019-02-11T17:03:02.278Z,94.00
2019-02-11T17:05:32.572Z,94.10
2019-02-11T17:08:02.861Z,94.30
2019-02-11T17:10:33.138Z,94.60
2019-02-11T17:13:03.442Z,94.60
2019-02-11T17:15:33.704Z,94.50
2019-02-11T17:18:04.024Z,94.60
2019-02-11T17:20:34.291Z,94.60
2019-02-11T17:23:04.604Z,94.60
2019-02-11T17:25:34.875Z,94.80
2019-02-11T17:28:05.159Z,94.90
2019-02-11T17:30:35.490Z,94.90
2019-02-11T17:33:05.772Z,94.90
2019-02-11T17:35:36.057Z,95.00
2019-02-11T17:38:06.404Z,94.80
2019-02-11T17:40:36.673Z,94.80
2019-02-11T17:43:06.925Z,94.40
2019-02-11T17:45:37.248Z,94.40
2019-02-11T17:48:07.611Z,94.20
2019-02-11T17:50:38.089Z,94.20
2019-02-11T17:53:09.350Z,94.20
2019-02-11T17:55:39.751Z,94.10
2019-02-11T17:58:10.102Z,94.00
2019-02-11T18:00:45.956Z,94.20
2019-02-11T18:03:16.273Z,94.00
2019-02-11T18:05:46.537Z,94.00
2019-02-11T18:08:16.799Z,94.00
2019-02-11T18:10:47.146Z,94.00
2019-02-11T18:13:17.440Z,94.20
2019-02-11T18:15:47.758Z,94.40
2019-02-11T18:18:18.132Z,94.50
2019-02-11T18:20:48.454Z,94.60
2019-02-11T18:23:18.882Z,94.70
2019-02-11T18:25:49.177Z,94.80
2019-02-11T18:28:19.554Z,94.80
2019-02-11T18:30:49.946Z,94.80
2019-02-11T18:35:48.013Z,94.80
2019-02-11T18:38:19.454Z,94.90
2019-02-11T18:40:49.654Z,94.60
2019-02-11T18:43:19.953Z,94.60
2019-02-11T18:45:50.285Z,94.30
2019-02-11T18:48:20.581Z,94.60
2019-02-11T18:50:50.928Z,94.50
2019-02-11T18:53:22.311Z,94.40
2019-02-11T18:55:53.023Z,94.50
2019-02-11T18:58:23.410Z,94.50
2019-02-11T19:00:54.119Z,94.20
2019-02-11T19:03:24.966Z,94.30
2019-02-11T19:05:55.345Z,94.40
2019-02-11T19:08:26.647Z,94.50
2019-02-11T19:10:57.254Z,94.50
2019-02-11T19:13:27.659Z,94.50
2019-02-11T19:15:58.126Z,94.50
2019-02-11T19:18:28.510Z,94.60
2019-02-11T19:20:59.216Z,94.60
2019-02-11T19:23:31.473Z,94.50
2019-02-11T19:26:02.857Z,94.60
2019-02-11T19:28:33.149Z,94.60
2019-02-11T19:31:03.546Z,94.40
2019-02-11T19:33:33.921Z,94.80
2019-02-11T19:36:04.157Z,94.80
2019-02-11T19:38:34.448Z,94.60
2019-02-11T19:41:04.720Z,94.70
2019-02-11T19:43:35.135Z,94.70
2019-02-11T19:46:05.602Z,94.70
2019-02-11T19:48:36.051Z,94.60
2019-02-11T19:51:06.288Z,94.60
2019-02-11T19:53:36.645Z,94.70
2019-02-11T19:56:07.207Z,94.70
2019-02-11T19:58:38.180Z,94.60
2019-02-11T20:01:08.470Z,94.60
2019-02-11T20:03:38.857Z,94.60
2019-02-11T20:06:09.149Z,94.60
2019-02-11T20:08:39.941Z,94.60
2019-02-11T20:11:10.293Z,94.70
2019-02-11T20:13:40.992Z,95.20
2019-02-11T20:16:11.299Z,94.70
2019-02-11T20:18:41.584Z,94.80
2019-02-11T20:21:12.019Z,94.80
2019-02-11T20:23:42.394Z,95.00
2019-02-11T20:26:12.691Z,95.10
2019-02-11T20:28:43.046Z,95.40
2019-02-11T20:31:13.332Z,95.00
2019-02-11T20:33:43.651Z,95.50
2019-02-11T20:36:13.946Z,95.00
2019-02-11T20:38:44.309Z,95.20
2019-02-11T20:41:14.633Z,95.20
2019-02-11T20:43:44.944Z,95.20
2019-02-11T20:46:15.346Z,95.30
2019-02-11T20:48:48.758Z,95.30
2019-02-11T20:51:19.065Z,95.40
2019-02-11T20:53:49.382Z,95.50
2019-02-11T20:56:19.756Z,95.50
2019-02-11T20:58:50.082Z,95.30
2019-02-11T21:01:20.498Z,95.40
2019-02-11T21:03:50.793Z,95.40
2019-02-11T21:06:21.136Z,95.40
2019-02-11T21:08:51.411Z,95.40
2019-02-11T21:11:21.734Z,95.50
2019-02-11T21:13:52.062Z,95.30
2019-02-11T21:16:22.364Z,95.40
2019-02-11T21:18:52.680Z,95.00
2019-02-11T21:21:23.002Z,94.50
2019-02-11T21:23:53.601Z,94.40
2019-02-11T21:26:23.918Z,94.30
2019-02-11T21:28:54.223Z,94.20
2019-02-11T21:31:24.537Z,93.70
2019-02-11T21:33:54.834Z,93.50
2019-02-11T21:36:25.152Z,93.20
2019-02-11T21:38:55.445Z,92.70
2019-02-11T21:41:25.769Z,92.30
2019-02-11T21:43:56.064Z,92.50
2019-02-11T21:46:26.375Z,92.30
2019-02-11T21:48:56.661Z,92.50
2019-02-11T21:51:27.039Z,92.60
2019-02-11T21:53:57.327Z,92.50
2019-02-11T21:56:27.617Z,92.80
2019-02-11T21:58:57.978Z,92.50
2019-02-11T22:01:28.294Z,92.50
2019-02-11T22:03:58.662Z,92.40
2019-02-11T22:06:28.978Z,92.40
2019-02-11T22:08:59.371Z,92.30
2019-02-11T22:11:29.720Z,91.60
2019-02-11T22:13:59.989Z,91.40
2019-02-11T22:16:30.285Z,90.10
2019-02-11T22:19:00.569Z,90.50
2019-02-11T22:21:30.861Z,90.70
2019-02-11T22:24:01.157Z,90.70
2019-02-11T22:26:31.441Z,90.70
2019-02-11T22:29:01.744Z,90.60
2019-02-11T22:31:33.684Z,90.50
2019-02-11T22:34:04.005Z,90.20
2019-02-11T22:36:34.317Z,90.10
2019-02-11T22:39:05.613Z,89.30
2019-02-11T22:41:35.898Z,88.60
2019-02-11T22:44:06.178Z,89.20
2019-02-11T22:46:36.462Z,89.70
2019-02-11T22:49:06.750Z,88.70
2019-02-11T22:51:37.190Z,88.70
2019-02-11T22:54:07.463Z,88.40
2019-02-11T22:56:38.188Z,88.80
2019-02-11T22:59:08.495Z,88.70
2019-02-11T23:01:39.179Z,89.60
2019-02-11T23:04:09.769Z,88.70
2019-02-11T23:06:40.105Z,89.30
2019-02-11T23:09:13.727Z,89.20
2019-02-11T23:11:44.001Z,88.90
2019-02-11T23:14:14.453Z,88.70
2019-02-11T23:16:44.816Z,89.10
2019-02-11T23:19:15.079Z,89.20
2019-02-11T23:21:45.373Z,90.00
2019-02-11T23:24:15.654Z,90.10
2019-02-11T23:26:45.945Z,90.30
2019-02-11T23:29:16.261Z,90.40
2019-02-11T23:31:46.554Z,90.00
2019-02-11T23:34:16.853Z,90.30
2019-02-11T23:36:47.157Z,90.50
2019-02-11T23:39:17.665Z,90.70
2019-02-11T23:41:47.941Z,90.30
2019-02-11T23:44:18.250Z,90.60
2019-02-11T23:46:48.540Z,90.30
2019-02-11T23:49:18.861Z,90.10
2019-02-11T23:51:49.221Z,89.90
2019-02-11T23:54:19.543Z,90.10
2019-02-11T23:56:49.824Z,89.20
2019-02-11T23:59:20.133Z,89.30
